Ripley, Illinois
Current Conditions -  °F | °C
As of 12:35 AM on Thursday 29 Jan 2015 (Local Time) from KPPQ Reporting Station
Clear Clear  
Wind Chill: 40°   Ceiling: Unl
Heat Index: 46°   Visibility: 10mi
Dew Point: 37°   Wind: 12mph
Humidity: 70%   Direction: 190°S
Pressure: 29.72"   Gusts: NA
Location:  39.9985°N, 90.6925°W
Report Text: KPPQ 290635Z AUTO 19010KT 10SM CLR 08/03 A2972 RMK AO2 T00770025
Loading
Personal Weather Stations






























Interactive Weather Map New forecast layout! Learn more

10-Day Weather Forecast

Advertisements
Track Severe Weather on mobile